sensor_id;sensor_type;location;lat;lon;timestamp;pressure;altitude;pressure_sealevel;temperature;humidity
61086;BME280;46967;48.876;2.136;2022-11-13T00:02:07;102277.28;;;7.80;93.91
61086;BME280;46967;48.876;2.136;2022-11-13T00:04:32;102285.03;;;7.80;94.16
61086;BME280;46967;48.876;2.136;2022-11-13T00:06:57;102285.94;;;7.80;94.88
61086;BME280;46967;48.876;2.136;2022-11-13T00:09:23;102285.91;;;7.79;95.16
61086;BME280;46967;48.876;2.136;2022-11-13T00:11:48;102278.16;;;7.77;95.24
61086;BME280;46967;48.876;2.136;2022-11-13T00:14:13;102284.19;;;7.79;95.45
61086;BME280;46967;48.876;2.136;2022-11-13T00:16:39;102285.06;;;7.82;95.40
61086;BME280;46967;48.876;2.136;2022-11-13T00:19:04;102279.88;;;7.80;95.02
61086;BME280;46967;48.876;2.136;2022-11-13T00:21:29;102279.00;;;7.79;94.39
61086;BME280;46967;48.876;2.136;2022-11-13T00:23:55;102284.19;;;7.78;95.05
61086;BME280;46967;48.876;2.136;2022-11-13T00:26:23;102288.50;;;7.77;95.12
61086;BME280;46967;48.876;2.136;2022-11-13T00:28:53;102286.78;;;7.79;95.36
61086;BME280;46967;48.876;2.136;2022-11-13T00:31:19;102278.13;;;7.74;95.55
61086;BME280;46967;48.876;2.136;2022-11-13T00:33:44;102278.16;;;7.80;95.31
61086;BME280;46967;48.876;2.136;2022-11-13T00:36:14;102272.13;;;7.85;95.06
61086;BME280;46967;48.876;2.136;2022-11-13T00:38:40;102267.88;;;7.87;94.98
61086;BME280;46967;48.876;2.136;2022-11-13T00:41:05;102262.72;;;7.90;94.38
61086;BME280;46967;48.876;2.136;2022-11-13T00:43:31;102260.09;;;7.91;94.71
61086;BME280;46967;48.876;2.136;2022-11-13T00:45:56;102258.41;;;7.90;94.89
61086;BME280;46967;48.876;2.136;2022-11-13T00:48:22;102258.38;;;7.89;95.20
61086;BME280;46967;48.876;2.136;2022-11-13T00:50:48;102256.66;;;7.89;95.64
61086;BME280;46967;48.876;2.136;2022-11-13T00:53:14;102254.94;;;7.88;95.50
61086;BME280;46967;48.876;2.136;2022-11-13T00:55:41;102248.03;;;7.86;94.99
61086;BME280;46967;48.876;2.136;2022-11-13T00:58:07;102243.69;;;7.83;95.63
61086;BME280;46967;48.876;2.136;2022-11-13T01:00:32;102241.09;;;7.78;96.03
61086;BME280;46967;48.876;2.136;2022-11-13T01:02:58;102231.63;;;7.79;96.33
61086;BME280;46967;48.876;2.136;2022-11-13T01:05:24;102223.00;;;7.78;96.55
61086;BME280;46967;48.876;2.136;2022-11-13T01:07:50;102220.38;;;7.72;97.45
61086;BME280;46967;48.876;2.136;2022-11-13T01:10:15;102223.00;;;7.71;97.59
61086;BME280;46967;48.876;2.136;2022-11-13T01:12:40;102216.97;;;7.75;97.28
61086;BME280;46967;48.876;2.136;2022-11-13T01:15:06;102223.88;;;7.77;96.66
61086;BME280;46967;48.876;2.136;2022-11-13T01:17:32;102218.72;;;7.79;96.53
61086;BME280;46967;48.876;2.136;2022-11-13T01:19:57;102219.56;;;7.79;96.82
61086;BME280;46967;48.876;2.136;2022-11-13T01:22:22;102210.97;;;7.77;97.39
61086;BME280;46967;48.876;2.136;2022-11-13T01:24:48;102207.50;;;7.78;97.59
61086;BME280;46967;48.876;2.136;2022-11-13T01:27:13;102193.72;;;7.76;98.20
61086;BME280;46967;48.876;2.136;2022-11-13T01:29:40;102200.63;;;7.77;98.70
61086;BME280;46967;48.876;2.136;2022-11-13T01:32:05;102197.16;;;7.80;98.83
61086;BME280;46967;48.876;2.136;2022-11-13T01:34:31;102198.06;;;7.82;98.77
61086;BME280;46967;48.876;2.136;2022-11-13T01:36:56;102199.75;;;7.83;99.21
61086;BME280;46967;48.876;2.136;2022-11-13T01:39:21;102189.44;;;7.85;99.41
61086;BME280;46967;48.876;2.136;2022-11-13T01:41:47;102204.13;;;7.93;99.13
61086;BME280;46967;48.876;2.136;2022-11-13T01:44:14;102188.63;;;7.98;98.82
61086;BME280;46967;48.876;2.136;2022-11-13T01:46:41;102180.00;;;7.99;98.68
61086;BME280;46967;48.876;2.136;2022-11-13T01:49:14;102189.50;;;8.02;99.17
61086;BME280;46967;48.876;2.136;2022-11-13T01:51:52;102182.59;;;8.01;99.66
61086;BME280;46967;48.876;2.136;2022-11-13T01:54:20;102180.91;;;8.06;99.75
61086;BME280;46967;48.876;2.136;2022-11-13T01:56:46;102172.28;;;8.10;99.42
61086;BME280;46967;48.876;2.136;2022-11-13T01:59:20;102180.88;;;8.12;99.32
61086;BME280;46967;48.876;2.136;2022-11-13T02:01:45;102169.69;;;8.18;99.00
61086;BME280;46967;48.876;2.136;2022-11-13T02:04:11;102167.97;;;8.20;99.00
61086;BME280;46967;48.876;2.136;2022-11-13T02:07:00;102174.03;;;8.23;98.62
61086;BME280;46967;48.876;2.136;2022-11-13T02:09:29;102169.72;;;8.27;99.08
61086;BME280;46967;48.876;2.136;2022-11-13T02:11:56;102169.72;;;8.27;98.72
61086;BME280;46967;48.876;2.136;2022-11-13T02:14:24;102159.38;;;8.30;98.60
61086;BME280;46967;48.876;2.136;2022-11-13T02:16:52;102157.66;;;8.29;98.34
61086;BME280;46967;48.876;2.136;2022-11-13T02:19:25;102159.38;;;8.27;98.58
61086;BME280;46967;48.876;2.136;2022-11-13T02:21:59;102149.88;;;8.29;98.87
61086;BME280;46967;48.876;2.136;2022-11-13T02:24:30;102139.53;;;8.26;99.28
61086;BME280;46967;48.876;2.136;2022-11-13T02:27:00;102137.81;;;8.19;99.89
61086;BME280;46967;48.876;2.136;2022-11-13T02:29:27;102141.25;;;8.18;100.00
61086;BME280;46967;48.876;2.136;2022-11-13T02:31:52;102136.09;;;8.18;100.00
61086;BME280;46967;48.876;2.136;2022-11-13T02:34:17;102140.41;;;8.17;100.00
61086;BME280;46967;48.876;2.136;2022-11-13T02:36:43;102143.00;;;8.20;100.00
61086;BME280;46967;48.876;2.136;2022-11-13T02:39:11;102149.88;;;8.23;100.00
61086;BME280;46967;48.876;2.136;2022-11-13T02:41:36;102146.44;;;8.24;100.00
61086;BME280;46967;48.876;2.136;2022-11-13T02:44:06;102152.47;;;8.24;100.00
61086;BME280;46967;48.876;2.136;2022-11-13T02:46:32;102147.28;;;8.24;100.00
61086;BME280;46967;48.876;2.136;2022-11-13T02:48:58;102156.78;;;8.21;100.00
61086;BME280;46967;48.876;2.136;2022-11-13T02:51:23;102143.84;;;8.19;100.00
61086;BME280;46967;48.876;2.136;2022-11-13T02:53:48;102141.25;;;8.21;100.00
61086;BME280;46967;48.876;2.136;2022-11-13T02:56:14;102141.25;;;8.21;100.00
61086;BME280;46967;48.876;2.136;2022-11-13T02:58:39;102142.13;;;8.29;100.00
61086;BME280;46967;48.876;2.136;2022-11-13T03:01:05;102139.53;;;8.29;100.00
61086;BME280;46967;48.876;2.136;2022-11-13T03:03:30;102148.19;;;8.26;100.00
61086;BME280;46967;48.876;2.136;2022-11-13T03:05:56;102146.44;;;8.28;100.00
61086;BME280;46967;48.876;2.136;2022-11-13T03:08:21;102147.31;;;8.29;100.00
61086;BME280;46967;48.876;2.136;2022-11-13T03:10:50;102149.88;;;8.29;100.00
61086;BME280;46967;48.876;2.136;2022-11-13T03:13:15;102133.50;;;8.27;100.00
61086;BME280;46967;48.876;2.136;2022-11-13T03:15:40;102140.41;;;8.26;100.00
61086;BME280;46967;48.876;2.136;2022-11-13T03:18:06;102137.84;;;8.26;100.00
61086;BME280;46967;48.876;2.136;2022-11-13T03:20:35;102139.53;;;8.27;100.00
61086;BME280;46967;48.876;2.136;2022-11-13T03:23:01;102133.50;;;8.25;100.00
61086;BME280;46967;48.876;2.136;2022-11-13T03:25:27;102127.47;;;8.28;100.00
61086;BME280;46967;48.876;2.136;2022-11-13T03:27:52;102136.09;;;8.28;100.00
61086;BME280;46967;48.876;2.136;2022-11-13T03:30:18;102134.38;;;8.27;100.00
61086;BME280;46967;48.876;2.136;2022-11-13T03:32:43;102134.38;;;8.26;100.00
61086;BME280;46967;48.876;2.136;2022-11-13T03:35:09;102130.06;;;8.22;100.00
61086;BME280;46967;48.876;2.136;2022-11-13T03:37:34;102128.34;;;8.21;100.00
61086;BME280;46967;48.876;2.136;2022-11-13T03:39:59;102120.56;;;8.19;100.00
61086;BME280;46967;48.876;2.136;2022-11-13T03:42:25;102121.41;;;8.16;100.00
61086;BME280;46967;48.876;2.136;2022-11-13T03:44:50;102122.28;;;8.14;100.00
61086;BME280;46967;48.876;2.136;2022-11-13T03:47:15;102122.28;;;8.14;100.00
61086;BME280;46967;48.876;2.136;2022-11-13T03:49:41;102122.28;;;8.11;100.00
61086;BME280;46967;48.876;2.136;2022-11-13T03:52:06;102111.09;;;8.06;100.00
61086;BME280;46967;48.876;2.136;2022-11-13T03:54:31;102117.09;;;8.06;100.00
61086;BME280;46967;48.876;2.136;2022-11-13T03:56:57;102125.72;;;8.07;100.00
61086;BME280;46967;48.876;2.136;2022-11-13T03:59:22;102124.00;;;8.03;100.00
61086;BME280;46967;48.876;2.136;2022-11-13T04:01:47;102118.84;;;8.01;100.00
61086;BME280;46967;48.876;2.136;2022-11-13T04:04:13;102121.41;;;8.00;100.00
61086;BME280;46967;48.876;2.136;2022-11-13T04:06:39;102113.66;;;7.98;100.00
61086;BME280;46967;48.876;2.136;2022-11-13T04:09:04;102101.56;;;7.97;100.00
61086;BME280;46967;48.876;2.136;2022-11-13T04:11:30;102108.47;;;7.95;100.00
61086;BME280;46967;48.876;2.136;2022-11-13T04:13:56;102112.78;;;7.97;100.00
61086;BME280;46967;48.876;2.136;2022-11-13T04:16:21;102104.16;;;7.98;100.00
61086;BME280;46967;48.876;2.136;2022-11-13T04:18:46;102107.59;;;8.02;100.00
61086;BME280;46967;48.876;2.136;2022-11-13T04:21:12;102110.19;;;8.04;100.00
61086;BME280;46967;48.876;2.136;2022-11-13T04:23:37;102093.84;;;8.03;100.00
61086;BME280;46967;48.876;2.136;2022-11-13T04:26:03;102101.56;;;7.97;100.00
61086;BME280;46967;48.876;2.136;2022-11-13T04:28:28;102092.97;;;7.96;100.00
61086;BME280;46967;48.876;2.136;2022-11-13T04:30:54;102087.78;;;7.90;100.00
61086;BME280;46967;48.876;2.136;2022-11-13T04:33:20;102088.63;;;7.92;100.00
61086;BME280;46967;48.876;2.136;2022-11-13T04:35:45;102089.50;;;7.91;100.00
61086;BME280;46967;48.876;2.136;2022-11-13T04:38:11;102088.63;;;7.94;100.00
61086;BME280;46967;48.876;2.136;2022-11-13T04:40:38;102086.91;;;7.94;100.00
61086;BME280;46967;48.876;2.136;2022-11-13T04:43:03;102088.66;;;8.00;100.00
61086;BME280;46967;48.876;2.136;2022-11-13T04:45:29;102091.25;;;8.02;100.00
61086;BME280;46967;48.876;2.136;2022-11-13T04:47:54;102082.63;;;8.03;100.00
61086;BME280;46967;48.876;2.136;2022-11-13T04:50:19;102086.94;;;8.05;100.00
61086;BME280;46967;48.876;2.136;2022-11-13T04:52:45;102080.91;;;8.08;100.00
61086;BME280;46967;48.876;2.136;2022-11-13T04:55:11;102081.75;;;8.10;100.00
61086;BME280;46967;48.876;2.136;2022-11-13T04:57:37;102064.53;;;8.07;100.00
61086;BME280;46967;48.876;2.136;2022-11-13T05:00:04;102060.22;;;8.05;100.00
61086;BME280;46967;48.876;2.136;2022-11-13T05:02:30;102074.88;;;8.00;100.00
61086;BME280;46967;48.876;2.136;2022-11-13T05:04:55;102071.41;;;8.01;100.00
61086;BME280;46967;48.876;2.136;2022-11-13T05:07:21;102079.16;;;8.02;100.00
61086;BME280;46967;48.876;2.136;2022-11-13T05:09:46;102080.91;;;8.00;100.00
61086;BME280;46967;48.876;2.136;2022-11-13T05:12:12;102080.03;;;7.96;100.00
61086;BME280;46967;48.876;2.136;2022-11-13T05:14:38;102081.75;;;7.99;100.00
61086;BME280;46967;48.876;2.136;2022-11-13T05:17:05;102082.63;;;8.04;100.00
61086;BME280;46967;48.876;2.136;2022-11-13T05:19:34;102076.59;;;8.04;100.00
61086;BME280;46967;48.876;2.136;2022-11-13T05:21:59;102081.75;;;8.05;100.00
61086;BME280;46967;48.876;2.136;2022-11-13T05:24:25;102074.84;;;8.09;100.00
61086;BME280;46967;48.876;2.136;2022-11-13T05:26:50;102067.97;;;8.06;100.00
61086;BME280;46967;48.876;2.136;2022-11-13T05:29:16;102061.94;;;8.09;100.00
61086;BME280;46967;48.876;2.136;2022-11-13T05:31:42;102060.22;;;8.11;100.00
61086;BME280;46967;48.876;2.136;2022-11-13T05:34:08;102061.94;;;8.12;100.00
61086;BME280;46967;48.876;2.136;2022-11-13T05:36:34;102052.47;;;8.06;100.00
61086;BME280;46967;48.876;2.136;2022-11-13T05:38:59;102062.81;;;8.05;100.00
61086;BME280;46967;48.876;2.136;2022-11-13T05:41:25;102054.19;;;8.03;100.00
61086;BME280;46967;48.876;2.136;2022-11-13T05:43:51;102050.72;;;8.07;100.00
61086;BME280;46967;48.876;2.136;2022-11-13T05:46:21;102047.28;;;8.08;100.00
61086;BME280;46967;48.876;2.136;2022-11-13T05:48:52;102042.13;;;8.06;100.00
61086;BME280;46967;48.876;2.136;2022-11-13T05:51:20;102034.38;;;8.08;100.00
61086;BME280;46967;48.876;2.136;2022-11-13T05:53:46;102042.97;;;8.13;100.00
61086;BME280;46967;48.876;2.136;2022-11-13T05:56:17;102028.31;;;8.16;100.00
61086;BME280;46967;48.876;2.136;2022-11-13T05:58:43;102026.63;;;8.20;100.00
61086;BME280;46967;48.876;2.136;2022-11-13T06:01:10;102018.84;;;8.25;100.00
61086;BME280;46967;48.876;2.136;2022-11-13T06:03:36;102009.38;;;8.25;100.00
61086;BME280;46967;48.876;2.136;2022-11-13T06:06:03;102011.94;;;8.28;100.00
61086;BME280;46967;48.876;2.136;2022-11-13T06:08:29;102012.81;;;8.26;100.00
61086;BME280;46967;48.876;2.136;2022-11-13T06:10:59;101995.59;;;8.19;100.00
61086;BME280;46967;48.876;2.136;2022-11-13T06:13:24;102010.22;;;8.16;100.00
61086;BME280;46967;48.876;2.136;2022-11-13T06:15:50;101996.44;;;8.14;100.00
61086;BME280;46967;48.876;2.136;2022-11-13T06:18:20;102000.75;;;8.15;100.00
61086;BME280;46967;48.876;2.136;2022-11-13T06:20:45;101996.44;;;8.14;100.00
61086;BME280;46967;48.876;2.136;2022-11-13T06:23:11;101998.16;;;8.14;100.00
61086;BME280;46967;48.876;2.136;2022-11-13T06:25:36;101997.28;;;8.16;100.00
61086;BME280;46967;48.876;2.136;2022-11-13T06:28:01;101996.44;;;8.18;100.00
61086;BME280;46967;48.876;2.136;2022-11-13T06:30:27;102003.34;;;8.17;100.00
61086;BME280;46967;48.876;2.136;2022-11-13T06:32:53;101996.44;;;8.14;100.00
61086;BME280;46967;48.876;2.136;2022-11-13T06:35:18;101998.16;;;8.12;100.00
61086;BME280;46967;48.876;2.136;2022-11-13T06:37:44;101988.69;;;8.14;100.00
61086;BME280;46967;48.876;2.136;2022-11-13T06:40:10;101989.53;;;8.15;100.00
61086;BME280;46967;48.876;2.136;2022-11-13T06:42:36;101987.81;;;8.15;100.00
61086;BME280;46967;48.876;2.136;2022-11-13T06:45:01;101980.06;;;8.17;100.00
61086;BME280;46967;48.876;2.136;2022-11-13T06:47:27;101990.41;;;8.20;100.00
61086;BME280;46967;48.876;2.136;2022-11-13T06:49:52;101984.34;;;8.24;100.00
61086;BME280;46967;48.876;2.136;2022-11-13T06:52:18;101981.75;;;8.24;100.00
61086;BME280;46967;48.876;2.136;2022-11-13T06:54:43;101979.19;;;8.24;100.00
61086;BME280;46967;48.876;2.136;2022-11-13T06:57:08;101976.59;;;8.23;100.00
61086;BME280;46967;48.876;2.136;2022-11-13T06:59:34;101973.16;;;8.18;100.00
61086;BME280;46967;48.876;2.136;2022-11-13T07:01:59;101986.09;;;8.16;100.00
61086;BME280;46967;48.876;2.136;2022-11-13T07:04:24;101980.06;;;8.17;100.00
61086;BME280;46967;48.876;2.136;2022-11-13T07:06:50;101983.50;;;8.21;100.00
61086;BME280;46967;48.876;2.136;2022-11-13T07:09:15;101987.81;;;8.23;100.00
61086;BME280;46967;48.876;2.136;2022-11-13T07:11:40;101993.00;;;8.20;100.00
61086;BME280;46967;48.876;2.136;2022-11-13T07:14:09;101983.50;;;8.21;100.00
61086;BME280;46967;48.876;2.136;2022-11-13T07:16:35;101984.34;;;8.20;100.00
61086;BME280;46967;48.876;2.136;2022-11-13T07:19:00;101980.06;;;8.20;100.00
61086;BME280;46967;48.876;2.136;2022-11-13T07:21:25;101983.50;;;8.25;100.00
61086;BME280;46967;48.876;2.136;2022-11-13T07:23:50;101981.75;;;8.26;100.00
61086;BME280;46967;48.876;2.136;2022-11-13T07:26:16;101988.66;;;8.27;100.00
61086;BME280;46967;48.876;2.136;2022-11-13T07:28:42;101989.53;;;8.29;100.00
61086;BME280;46967;48.876;2.136;2022-11-13T07:31:08;101988.66;;;8.25;100.00
61086;BME280;46967;48.876;2.136;2022-11-13T07:33:35;101986.09;;;8.25;100.00
61086;BME280;46967;48.876;2.136;2022-11-13T07:36:00;101984.34;;;8.26;100.00
61086;BME280;46967;48.876;2.136;2022-11-13T07:38:25;101981.75;;;8.29;100.00
61086;BME280;46967;48.876;2.136;2022-11-13T07:40:51;101974.88;;;8.26;100.00
61086;BME280;46967;48.876;2.136;2022-11-13T07:43:16;101972.28;;;8.28;100.00
61086;BME280;46967;48.876;2.136;2022-11-13T07:45:42;101977.44;;;8.28;100.00
61086;BME280;46967;48.876;2.136;2022-11-13T07:48:08;101974.84;;;8.29;100.00
61086;BME280;46967;48.876;2.136;2022-11-13T07:50:35;101971.41;;;8.35;100.00
61086;BME280;46967;48.876;2.136;2022-11-13T07:53:04;101971.41;;;8.35;100.00
61086;BME280;46967;48.876;2.136;2022-11-13T07:55:30;101967.97;;;8.33;100.00
61086;BME280;46967;48.876;2.136;2022-11-13T07:57:58;101975.72;;;8.33;100.00
61086;BME280;46967;48.876;2.136;2022-11-13T08:00:25;101964.50;;;8.32;100.00
61086;BME280;46967;48.876;2.136;2022-11-13T08:02:51;101966.22;;;8.37;100.00
61086;BME280;46967;48.876;2.136;2022-11-13T08:05:17;101966.22;;;8.40;100.00
61086;BME280;46967;48.876;2.136;2022-11-13T08:07:42;101962.78;;;8.39;100.00
61086;BME280;46967;48.876;2.136;2022-11-13T08:10:10;101957.63;;;8.38;100.00
61086;BME280;46967;48.876;2.136;2022-11-13T08:12:35;101954.13;;;8.42;100.00
61086;BME280;46967;48.876;2.136;2022-11-13T08:15:00;101940.38;;;8.44;100.00
61086;BME280;46967;48.876;2.136;2022-11-13T08:17:26;101934.31;;;8.53;100.00
61086;BME280;46967;48.876;2.136;2022-11-13T08:19:51;101931.69;;;8.56;100.00
61086;BME280;46967;48.876;2.136;2022-11-13T08:22:16;101933.44;;;8.59;100.00
61086;BME280;46967;48.876;2.136;2022-11-13T08:24:42;101929.09;;;8.59;100.00
61086;BME280;46967;48.876;2.136;2022-11-13T08:27:07;101929.09;;;8.61;100.00
61086;BME280;46967;48.876;2.136;2022-11-13T08:29:32;101923.06;;;8.65;100.00
61086;BME280;46967;48.876;2.136;2022-11-13T08:31:58;101923.06;;;8.65;100.00
61086;BME280;46967;48.876;2.136;2022-11-13T08:34:23;101929.94;;;8.69;100.00
61086;BME280;46967;48.876;2.136;2022-11-13T08:36:49;101922.16;;;8.70;100.00
61086;BME280;46967;48.876;2.136;2022-11-13T08:39:14;101922.16;;;8.72;100.00
61086;BME280;46967;48.876;2.136;2022-11-13T08:41:39;101922.13;;;8.75;100.00
61086;BME280;46967;48.876;2.136;2022-11-13T08:44:05;101915.25;;;8.79;100.00
61086;BME280;46967;48.876;2.136;2022-11-13T08:46:30;101913.47;;;8.87;100.00
61086;BME280;46967;48.876;2.136;2022-11-13T08:48:56;101920.31;;;8.96;100.00
61086;BME280;46967;48.876;2.136;2022-11-13T08:51:21;101911.66;;;9.04;100.00
61086;BME280;46967;48.876;2.136;2022-11-13T08:53:46;101916.81;;;9.06;100.00
61086;BME280;46967;48.876;2.136;2022-11-13T08:56:11;101912.47;;;9.13;100.00
61086;BME280;46967;48.876;2.136;2022-11-13T08:58:37;101922.84;;;9.10;100.00
61086;BME280;46967;48.876;2.136;2022-11-13T09:01:03;101928.84;;;9.15;100.00
61086;BME280;46967;48.876;2.136;2022-11-13T09:03:28;101925.38;;;9.19;100.00
61086;BME280;46967;48.876;2.136;2022-11-13T09:05:54;101927.97;;;9.16;100.00
61086;BME280;46967;48.876;2.136;2022-11-13T09:08:19;101931.44;;;9.15;100.00
61086;BME280;46967;48.876;2.136;2022-11-13T09:10:44;101932.38;;;9.04;100.00
61086;BME280;46967;48.876;2.136;2022-11-13T09:13:10;101924.53;;;9.15;100.00
61086;BME280;46967;48.876;2.136;2022-11-13T09:15:37;101921.94;;;9.20;100.00
61086;BME280;46967;48.876;2.136;2022-11-13T09:18:03;101920.97;;;9.35;100.00
61086;BME280;46967;48.876;2.136;2022-11-13T09:20:30;101907.94;;;9.46;100.00
61086;BME280;46967;48.876;2.136;2022-11-13T09:22:57;101907.84;;;9.56;100.00
61086;BME280;46967;48.876;2.136;2022-11-13T09:25:23;101912.06;;;9.70;100.00
61086;BME280;46967;48.876;2.136;2022-11-13T09:27:53;101905.03;;;9.79;100.00
61086;BME280;46967;48.876;2.136;2022-11-13T09:30:19;101905.84;;;9.85;100.00
61086;BME280;46967;48.876;2.136;2022-11-13T09:32:45;101901.38;;;10.01;100.00
61086;BME280;46967;48.876;2.136;2022-11-13T09:35:10;101901.25;;;10.13;98.84
61086;BME280;46967;48.876;2.136;2022-11-13T09:37:35;101897.75;;;10.19;98.72
61086;BME280;46967;48.876;2.136;2022-11-13T09:40:01;101878.59;;;10.30;98.87
61086;BME280;46967;48.876;2.136;2022-11-13T09:42:27;101876.72;;;10.43;97.60
61086;BME280;46967;48.876;2.136;2022-11-13T09:44:59;101871.41;;;10.56;96.69
61086;BME280;46967;48.876;2.136;2022-11-13T09:47:31;101868.63;;;10.69;96.30
61086;BME280;46967;48.876;2.136;2022-11-13T09:52:34;101876.91;;;10.98;95.34
61086;BME280;46967;48.876;2.136;2022-11-13T09:55:01;101876.78;;;11.07;94.43
61086;BME280;46967;48.876;2.136;2022-11-13T10:00:20;101867.84;;;11.23;93.40
61086;BME280;46967;48.876;2.136;2022-11-13T10:11:36;101859.19;;;11.74;90.04
61086;BME280;46967;48.876;2.136;2022-11-13T10:14:17;101859.88;;;11.84;89.24
61086;BME280;46967;48.876;2.136;2022-11-13T10:16:56;101854.50;;;11.96;89.58
61086;BME280;46967;48.876;2.136;2022-11-13T10:22:20;101848.06;;;12.14;88.84
61086;BME280;46967;48.876;2.136;2022-11-13T10:24:50;101842.81;;;12.18;87.67
61086;BME280;46967;48.876;2.136;2022-11-13T10:27:18;101847.00;;;12.25;86.74
61086;BME280;46967;48.876;2.136;2022-11-13T10:29:44;101849.56;;;12.28;86.38
61086;BME280;46967;48.876;2.136;2022-11-13T10:32:22;101847.69;;;12.35;85.79
61086;BME280;46967;48.876;2.136;2022-11-13T10:34:51;101840.75;;;12.33;84.52
61086;BME280;46967;48.876;2.136;2022-11-13T10:37:44;101833.75;;;12.37;84.03
61086;BME280;46967;48.876;2.136;2022-11-13T10:40:25;101831.03;;;12.42;84.09
61086;BME280;46967;48.876;2.136;2022-11-13T10:42:51;101824.00;;;12.47;83.90
61086;BME280;46967;48.876;2.136;2022-11-13T10:45:18;101816.81;;;12.58;84.64
61086;BME280;46967;48.876;2.136;2022-11-13T10:47:50;101816.56;;;12.69;83.63
61086;BME280;46967;48.876;2.136;2022-11-13T10:50:26;101803.56;;;12.69;82.46
61086;BME280;46967;48.876;2.136;2022-11-13T10:52:53;101800.88;;;12.72;82.03
61086;BME280;46967;48.876;2.136;2022-11-13T10:57:59;101789.31;;;12.84;83.46
61086;BME280;46967;48.876;2.136;2022-11-13T11:00:29;101785.53;;;12.97;83.63
61086;BME280;46967;48.876;2.136;2022-11-13T11:02:54;101791.38;;;13.07;83.31
61086;BME280;46967;48.876;2.136;2022-11-13T11:05:22;101801.50;;;13.18;82.97
61086;BME280;46967;48.876;2.136;2022-11-13T11:07:48;101790.13;;;13.22;82.58
61086;BME280;46967;48.876;2.136;2022-11-13T11:10:32;101791.59;;;13.34;82.23
61086;BME280;46967;48.876;2.136;2022-11-13T11:13:04;101791.34;;;13.43;81.10
61086;BME280;46967;48.876;2.136;2022-11-13T11:15:42;101789.44;;;13.50;79.81
61086;BME280;46967;48.876;2.136;2022-11-13T11:18:31;101788.50;;;13.52;79.79
61086;BME280;46967;48.876;2.136;2022-11-13T11:20:59;101779.72;;;13.56;79.68
61086;BME280;46967;48.876;2.136;2022-11-13T11:23:46;101773.41;;;13.64;79.44
61086;BME280;46967;48.876;2.136;2022-11-13T11:26:21;101758.47;;;13.70;79.98
61086;BME280;46967;48.876;2.136;2022-11-13T11:29:09;101753.81;;;13.82;78.46
61086;BME280;46967;48.876;2.136;2022-11-13T11:31:50;101754.66;;;13.82;77.04
61086;BME280;46967;48.876;2.136;2022-11-13T11:37:04;101742.94;;;13.95;76.63
61086;BME280;46967;48.876;2.136;2022-11-13T11:39:39;101741.78;;;14.06;76.20
61086;BME280;46967;48.876;2.136;2022-11-13T11:47:15;101725.16;;;14.38;75.90
61086;BME280;46967;48.876;2.136;2022-11-13T11:49:42;101723.13;;;14.48;76.47
61086;BME280;46967;48.876;2.136;2022-11-13T11:52:52;101721.00;;;14.61;74.68
61086;BME280;46967;48.876;2.136;2022-11-13T11:55:48;101716.53;;;14.64;73.42
61086;BME280;46967;48.876;2.136;2022-11-13T12:04:11;101703.97;;;14.76;73.72
61086;BME280;46967;48.876;2.136;2022-11-13T12:10:04;101692.84;;;14.96;72.58
61086;BME280;46967;48.876;2.136;2022-11-13T12:20:41;101683.03;;;15.28;72.40
61086;BME280;46967;48.876;2.136;2022-11-13T12:23:30;101671.69;;;15.27;70.62
61086;BME280;46967;48.876;2.136;2022-11-13T12:26:01;101666.31;;;15.32;69.67
61086;BME280;46967;48.876;2.136;2022-11-13T12:34:00;101665.19;;;15.39;71.45
61086;BME280;46967;48.876;2.136;2022-11-13T12:36:30;101654.56;;;15.44;69.69
61086;BME280;46967;48.876;2.136;2022-11-13T12:39:12;101644.88;;;15.46;70.44
61086;BME280;46967;48.876;2.136;2022-11-13T12:41:48;101646.66;;;15.45;69.25
61086;BME280;46967;48.876;2.136;2022-11-13T12:44:28;101642.22;;;15.47;69.23
61086;BME280;46967;48.876;2.136;2022-11-13T12:46:56;101640.97;;;15.57;70.23
61086;BME280;46967;48.876;2.136;2022-11-13T12:51:56;101637.31;;;15.62;69.73
61086;BME280;46967;48.876;2.136;2022-11-13T12:54:26;101635.69;;;15.59;69.53
61086;BME280;46967;48.876;2.136;2022-11-13T12:56:52;101630.19;;;15.65;68.55
61086;BME280;46967;48.876;2.136;2022-11-13T12:59:30;101631.91;;;15.66;68.81
61086;BME280;46967;48.876;2.136;2022-11-13T13:12:57;101624.53;;;15.78;67.45
61086;BME280;46967;48.876;2.136;2022-11-13T13:15:31;101621.69;;;15.84;67.53
61086;BME280;46967;48.876;2.136;2022-11-13T13:20:44;101605.75;;;15.90;65.64
61086;BME280;46967;48.876;2.136;2022-11-13T13:23:11;101607.22;;;15.97;67.89
61086;BME280;46967;48.876;2.136;2022-11-13T13:25:38;101604.59;;;15.97;66.81
61086;BME280;46967;48.876;2.136;2022-11-13T13:30:53;101596.94;;;15.92;67.10
61086;BME280;46967;48.876;2.136;2022-11-13T13:36:37;101594.78;;;15.80;66.50
61086;BME280;46967;48.876;2.136;2022-11-13T13:42:16;101591.44;;;15.77;66.44
61086;BME280;46967;48.876;2.136;2022-11-13T13:45:09;101581.25;;;15.69;68.83
61086;BME280;46967;48.876;2.136;2022-11-13T13:47:43;101580.50;;;15.65;69.19
61086;BME280;46967;48.876;2.136;2022-11-13T13:50:41;101583.22;;;15.62;68.99
61086;BME280;46967;48.876;2.136;2022-11-13T13:53:05;101582.63;;;15.55;70.04
61086;BME280;46967;48.876;2.136;2022-11-13T13:55:33;101586.22;;;15.53;69.31
61086;BME280;46967;48.876;2.136;2022-11-13T13:58:02;101587.16;;;15.50;68.04
61086;BME280;46967;48.876;2.136;2022-11-13T14:00:28;101577.50;;;15.52;68.06
61086;BME280;46967;48.876;2.136;2022-11-13T14:02:53;101579.38;;;15.49;69.03
61086;BME280;46967;48.876;2.136;2022-11-13T14:05:29;101579.63;;;15.43;68.90
61086;BME280;46967;48.876;2.136;2022-11-13T14:07:55;101570.94;;;15.42;69.08
61086;BME280;46967;48.876;2.136;2022-11-13T14:10:23;101574.59;;;15.36;68.90
61086;BME280;46967;48.876;2.136;2022-11-13T14:12:49;101572.22;;;15.30;68.38